Time;durP1;ratioP1;P1;durP2;ratioP2;P2;SDS_P1;SDS_P2;PMS_P1;PMS_P2;Temp;Humidity;BMP_temperature;BMP_pressure;BME280_temperature;BME280_humidity;BME280_pressure;Samples;Min_cycle;Max_cycle;Signal;HPM_P1;HPM_P2
2022/09/27 00:01:59;;;;;;;9.07;1.20;;;16.60;95.10;;;;;;5032853;28;20107;-68
2022/09/27 00:04:26;;;;;;;5.82;0.80;;;16.60;95.10;;;;;;5032816;28;20029;-69
2022/09/27 00:06:52;;;;;;;5.72;1.67;;;16.50;95.20;;;;;;5032833;28;20067;-69
2022/09/27 00:09:17;;;;;;;7.32;1.15;;;16.60;95.20;;;;;;5032718;28;20033;-69
2022/09/27 00:11:43;;;;;;;4.20;1.20;;;16.50;95.30;;;;;;5032747;28;20041;-69
2022/09/27 00:14:14;;;;;;;5.45;1.48;;;16.50;95.10;;;;;;5032620;28;20044;-69
2022/09/27 00:16:41;;;;;;;3.17;0.87;;;16.50;95.10;;;;;;5033182;28;20087;-69
2022/09/27 00:19:12;;;;;;;5.25;1.25;;;16.50;94.90;;;;;;5032611;28;20518;-69
2022/09/27 00:21:38;;;;;;;5.80;1.20;;;16.50;95.00;;;;;;5032630;28;20458;-69
2022/09/27 00:24:04;;;;;;;6.72;1.60;;;16.50;95.10;;;;;;5015880;28;20383;-69
2022/09/27 00:26:30;;;;;;;7.20;2.00;;;16.40;95.20;;;;;;5011830;28;20562;-69
2022/09/27 00:28:56;;;;;;;10.52;1.85;;;16.40;95.20;;;;;;5012269;28;20483;-69
2022/09/27 00:31:24;;;;;;;4.10;0.80;;;16.40;95.30;;;;;;5016867;28;20370;-68
2022/09/27 00:33:52;;;;;;;7.45;1.20;;;16.40;95.30;;;;;;5016626;28;20471;-69
2022/09/27 00:36:19;;;;;;;8.48;1.33;;;16.40;95.30;;;;;;5015985;28;20018;-68
2022/09/27 00:38:46;;;;;;;6.07;1.10;;;16.40;95.30;;;;;;5016584;28;20029;-68
2022/09/27 00:41:33;;;;;;;5.88;1.27;;;16.40;95.20;;;;;;5016351;28;20026;-68
2022/09/27 00:44:04;;;;;;;8.05;1.00;;;16.40;95.30;;;;;;5015342;28;20029;-69
2022/09/27 00:46:39;;;;;;;4.55;0.90;;;16.40;95.40;;;;;;5016299;28;20038;-68
2022/09/27 00:49:37;;;;;;;4.47;1.20;;;16.50;95.30;;;;;;5016574;28;20143;-68
2022/09/27 00:52:09;;;;;;;2.83;0.52;;;16.40;95.40;;;;;;5016287;28;20053;-69
2022/09/27 00:54:39;;;;;;;5.63;0.63;;;16.40;95.30;;;;;;5015446;28;20022;-69
2022/09/27 00:57:05;;;;;;;5.63;0.75;;;16.40;95.10;;;;;;5016435;28;20387;-69
2022/09/27 00:59:49;;;;;;;7.88;0.90;;;16.40;95.10;;;;;;5016201;28;20471;-70
2022/09/27 01:02:15;;;;;;;5.40;0.70;;;16.40;95.30;;;;;;5016471;28;20410;-69
2022/09/27 01:04:42;;;;;;;4.72;1.20;;;16.40;95.30;;;;;;5015014;28;20053;-69
2022/09/27 01:07:08;;;;;;;5.28;1.15;;;16.40;95.40;;;;;;5016340;28;20069;-69
2022/09/27 01:09:34;;;;;;;3.92;0.65;;;16.30;95.30;;;;;;5015859;28;20054;-69
2022/09/27 01:12:20;;;;;;;7.78;0.60;;;16.40;95.30;;;;;;5016268;28;20063;-67
2022/09/27 01:15:11;;;;;;;6.03;0.50;;;16.30;95.20;;;;;;5016024;28;20029;-67
2022/09/27 01:18:14;;;;;;;6.95;0.50;;;16.20;94.90;;;;;;5016228;28;20022;-68
2022/09/27 01:21:07;;;;;;;4.78;0.75;;;16.30;95.00;;;;;;5015860;28;20065;-67
2022/09/27 01:23:49;;;;;;;2.38;0.40;;;16.30;94.90;;;;;;5015548;28;20022;-67
2022/09/27 01:26:30;;;;;;;3.58;0.73;;;16.30;94.70;;;;;;5015644;28;20029;-67
2022/09/27 01:28:56;;;;;;;4.97;0.65;;;16.30;94.50;;;;;;5015901;28;20029;-67
2022/09/27 01:31:36;;;;;;;3.20;0.40;;;16.30;94.40;;;;;;5015415;28;20034;-67
2022/09/27 01:34:22;;;;;;;2.15;0.30;;;16.20;94.30;;;;;;5015774;28;20022;-69
2022/09/27 01:36:56;;;;;;;3.42;0.20;;;16.10;94.10;;;;;;5015719;28;20030;-67
2022/09/27 01:39:29;;;;;;;1.63;0.10;;;16.20;93.90;;;;;;5014938;28;20030;-67
2022/09/27 01:42:12;;;;;;;1.42;0.17;;;16.10;93.80;;;;;;5014615;28;20021;-67
2022/09/27 01:45:10;;;;;;;2.45;0.10;;;16.20;93.60;;;;;;5014400;28;20034;-67
2022/09/27 01:47:44;;;;;;;1.02;0.15;;;16.20;93.40;;;;;;5015163;28;20065;-69
2022/09/27 01:50:14;;;;;;;1.25;0.10;;;16.30;93.10;;;;;;5015455;28;20411;-67
2022/09/27 01:53:02;;;;;;;2.58;0.35;;;16.30;93.00;;;;;;5015019;28;20036;-69
2022/09/27 01:55:32;;;;;;;2.33;0.40;;;16.30;93.20;;;;;;5014940;28;20040;-69
2022/09/27 01:58:11;;;;;;;1.63;0.10;;;16.20;93.20;;;;;;5013908;28;20022;-69
2022/09/27 02:00:38;;;;;;;1.60;0.10;;;16.20;93.30;;;;;;5015351;28;20037;-69
2022/09/27 02:03:10;;;;;;;1.08;0.10;;;16.20;93.20;;;;;;5015180;28;20049;-67
2022/09/27 02:05:48;;;;;;;2.35;0.68;;;16.10;93.10;;;;;;5015167;28;20117;-69
2022/09/27 02:08:22;;;;;;;3.00;0.40;;;16.20;93.20;;;;;;5014770;28;20029;-69
2022/09/27 02:10:51;;;;;;;2.92;0.20;;;16.20;93.30;;;;;;5015059;28;20029;-69
2022/09/27 02:13:33;;;;;;;1.02;0.20;;;16.20;93.20;;;;;;5014816;28;20029;-69
2022/09/27 02:16:14;;;;;;;0.82;0.20;;;16.10;93.40;;;;;;5014809;28;20029;-67
2022/09/27 02:18:59;;;;;;;3.22;0.20;;;16.10;93.20;;;;;;5014877;28;20033;-69
2022/09/27 02:21:35;;;;;;;0.30;0.00;;;16.20;93.10;;;;;;5014467;28;20049;-67
2022/09/27 02:24:03;;;;;;;2.33;0.22;;;16.20;92.90;;;;;;5014632;28;20463;-67
2022/09/27 02:26:37;;;;;;;1.65;0.10;;;16.20;92.90;;;;;;5014385;28;20045;-68
2022/09/27 02:29:15;;;;;;;1.38;0.10;;;16.10;93.10;;;;;;5014691;28;20026;-68
2022/09/27 02:31:40;;;;;;;1.20;0.22;;;16.10;93.20;;;;;;5014923;28;20072;-67
2022/09/27 02:34:35;;;;;;;2.17;0.43;;;16.20;93.30;;;;;;5014571;28;20026;-68
2022/09/27 02:37:00;;;;;;;1.05;0.20;;;16.10;93.40;;;;;;5014035;28;20383;-69
2022/09/27 02:39:27;;;;;;;1.02;0.10;;;16.10;93.40;;;;;;5014554;28;20494;-68
2022/09/27 02:41:57;;;;;;;2.45;0.20;;;16.10;93.40;;;;;;5014268;28;20029;-67
2022/09/27 02:44:25;;;;;;;1.95;0.20;;;16.10;93.40;;;;;;5014495;28;20406;-67
2022/09/27 02:47:30;;;;;;;0.82;0.10;;;16.10;93.50;;;;;;5014241;28;20060;-67
2022/09/27 02:50:32;;;;;;;1.63;0.10;;;16.10;93.60;;;;;;5014320;28;20018;-67
2022/09/27 02:53:08;;;;;;;2.80;0.32;;;16.10;93.50;;;;;;5014124;28;20487;-67
2022/09/27 02:55:55;;;;;;;2.65;0.22;;;16.10;93.50;;;;;;5014021;28;20025;-67
2022/09/27 02:58:49;;;;;;;0.52;0.20;;;16.10;93.40;;;;;;5013901;28;20501;-68
2022/09/27 03:01:30;;;;;;;2.78;0.40;;;16.10;93.50;;;;;;5014117;28;20034;-68
2022/09/27 03:04:03;;;;;;;1.48;0.20;;;16.10;93.40;;;;;;5013741;28;20495;-68
2022/09/27 03:06:31;;;;;;;5.78;0.38;;;16.00;93.60;;;;;;5014024;28;20578;-68
2022/09/27 03:08:57;;;;;;;1.35;0.10;;;16.00;94.00;;;;;;5013964;28;20022;-68
2022/09/27 03:11:22;;;;;;;1.70;0.13;;;16.10;93.70;;;;;;5013824;28;20400;-69
2022/09/27 03:13:48;;;;;;;1.27;0.20;;;16.10;93.70;;;;;;5013867;28;20057;-68
2022/09/27 03:16:15;;;;;;;2.22;0.25;;;16.10;93.70;;;;;;5013768;28;20491;-68
2022/09/27 03:18:41;;;;;;;5.72;0.52;;;16.00;93.80;;;;;;5013796;28;20040;-69
2022/09/27 03:21:06;;;;;;;2.63;0.55;;;16.00;93.60;;;;;;5013566;28;20025;-69
2022/09/27 03:23:32;;;;;;;2.55;0.32;;;16.00;93.70;;;;;;5013612;28;20018;-69
2022/09/27 03:25:58;;;;;;;1.27;0.30;;;16.00;93.70;;;;;;5013490;28;20025;-69
2022/09/27 03:28:24;;;;;;;1.88;0.28;;;16.10;93.70;;;;;;5013431;28;20049;-69
2022/09/27 03:30:50;;;;;;;2.55;0.30;;;16.10;93.70;;;;;;5013676;28;20057;-69
2022/09/27 03:33:15;;;;;;;1.50;0.40;;;16.10;93.70;;;;;;5013536;28;20053;-69
2022/09/27 03:35:42;;;;;;;2.33;0.30;;;16.00;93.70;;;;;;5013314;28;20026;-69
2022/09/27 03:38:08;;;;;;;1.88;0.30;;;16.00;93.80;;;;;;5013187;28;20038;-68
2022/09/27 03:40:34;;;;;;;2.90;0.52;;;16.00;94.00;;;;;;5013358;28;20029;-69
2022/09/27 03:42:59;;;;;;;2.45;0.60;;;16.00;93.70;;;;;;5013217;28;20021;-69
2022/09/27 03:45:25;;;;;;;2.20;0.52;;;16.00;93.80;;;;;;5013303;28;20609;-69
2022/09/27 03:47:50;;;;;;;2.28;0.47;;;16.00;93.80;;;;;;5013480;28;20113;-68
2022/09/27 03:50:16;;;;;;;2.95;0.40;;;15.90;93.90;;;;;;5013318;28;20104;-69
2022/09/27 03:52:42;;;;;;;2.60;0.63;;;15.90;94.00;;;;;;5013144;28;20479;-69
2022/09/27 03:55:09;;;;;;;2.05;0.50;;;16.00;94.10;;;;;;5013380;28;20056;-69
2022/09/27 03:57:34;;;;;;;3.60;0.60;;;16.00;94.00;;;;;;5013160;28;20025;-69
2022/09/27 04:00:00;;;;;;;2.88;0.70;;;16.00;94.00;;;;;;5012866;28;20041;-68
2022/09/27 04:02:27;;;;;;;3.15;0.93;;;15.90;94.10;;;;;;5013058;28;20046;-68
2022/09/27 04:04:52;;;;;;;2.97;1.00;;;16.00;94.10;;;;;;5016382;28;20052;-68
2022/09/27 04:07:18;;;;;;;3.92;0.80;;;16.00;94.10;;;;;;5019804;28;20532;-69
2022/09/27 04:09:46;;;;;;;2.22;0.80;;;15.90;94.20;;;;;;5019474;28;20029;-69
2022/09/27 04:12:12;;;;;;;1.92;0.82;;;15.90;94.30;;;;;;5019728;28;20022;-68
2022/09/27 04:14:38;;;;;;;5.20;0.80;;;15.90;94.10;;;;;;5019599;28;20506;-69
2022/09/27 04:17:04;;;;;;;2.55;0.70;;;15.90;94.10;;;;;;5019427;28;20064;-68
2022/09/27 04:19:29;;;;;;;4.35;0.98;;;15.90;94.10;;;;;;5019436;28;20026;-68
2022/09/27 04:21:55;;;;;;;5.80;1.30;;;16.00;94.10;;;;;;5019629;28;20475;-69
2022/09/27 04:24:20;;;;;;;3.20;1.30;;;15.90;94.20;;;;;;5019414;28;20073;-69
2022/09/27 04:26:48;;;;;;;3.80;1.80;;;15.90;94.20;;;;;;5019469;28;20026;-69
2022/09/27 04:29:14;;;;;;;3.58;1.33;;;15.90;94.20;;;;;;5019480;28;20029;-69
2022/09/27 04:31:40;;;;;;;4.00;1.23;;;15.90;94.30;;;;;;5019255;28;20022;-69
2022/09/27 04:34:06;;;;;;;3.10;1.33;;;15.90;94.30;;;;;;5019390;28;20041;-69
2022/09/27 04:36:32;;;;;;;5.90;2.08;;;15.90;94.30;;;;;;5019326;28;20022;-69
2022/09/27 04:38:59;;;;;;;5.03;1.58;;;15.90;94.40;;;;;;5019318;28;20414;-69
2022/09/27 04:41:27;;;;;;;3.28;1.63;;;15.90;94.50;;;;;;5019412;28;20472;-69
2022/09/27 04:43:54;;;;;;;4.03;1.55;;;15.90;94.40;;;;;;5019167;28;20482;-69
2022/09/27 04:46:20;;;;;;;4.00;1.40;;;15.90;94.40;;;;;;5018836;28;20158;-69
2022/09/27 04:48:46;;;;;;;4.72;1.45;;;15.80;94.30;;;;;;5019352;28;20487;-69
2022/09/27 04:51:15;;;;;;;3.22;1.40;;;15.90;94.30;;;;;;5019270;28;20029;-69
2022/09/27 04:53:40;;;;;;;3.10;1.42;;;15.90;94.60;;;;;;5019095;28;20037;-69
2022/09/27 04:56:07;;;;;;;3.25;1.23;;;15.90;94.50;;;;;;5019100;28;20073;-69
2022/09/27 04:58:33;;;;;;;6.80;1.73;;;15.90;94.60;;;;;;5019016;28;20065;-69
2022/09/27 05:01:01;;;;;;;5.60;1.95;;;15.90;94.60;;;;;;5020910;28;20033;-69
2022/09/27 05:03:27;;;;;;;4.20;2.00;;;15.90;94.50;;;;;;5036044;28;20390;-69
2022/09/27 05:05:53;;;;;;;3.78;1.63;;;15.90;94.50;;;;;;5036856;28;20133;-68
2022/09/27 05:08:19;;;;;;;4.00;2.30;;;15.90;94.50;;;;;;5036706;28;20497;-69
2022/09/27 05:10:46;;;;;;;5.95;1.98;;;15.90;94.60;;;;;;5038997;28;20025;-67
2022/09/27 05:13:12;;;;;;;4.32;1.90;;;15.90;94.60;;;;;;5038971;28;20017;-69
2022/09/27 05:15:38;;;;;;;5.57;2.40;;;15.90;94.70;;;;;;5036648;28;20068;-68
2022/09/27 05:18:06;;;;;;;5.07;1.70;;;15.90;94.70;;;;;;5026370;28;20391;-68
2022/09/27 05:20:31;;;;;;;4.82;1.58;;;16.10;93.70;;;;;;5019390;28;20038;-68
2022/09/27 05:22:57;;;;;;;3.75;1.40;;;16.30;93.00;;;;;;5014119;28;20028;-69
2022/09/27 05:25:23;;;;;;;2.83;1.30;;;16.30;92.80;;;;;;5017760;28;20478;-69
2022/09/27 05:27:49;;;;;;;5.50;1.98;;;16.40;92.60;;;;;;5012819;28;20025;-68
2022/09/27 05:30:15;;;;;;;5.35;2.35;;;16.50;92.50;;;;;;5017735;28;20479;-68
2022/09/27 05:32:48;;;;;;;3.45;1.50;;;16.50;92.50;;;;;;5017522;28;20075;-68
2022/09/27 05:35:14;;;;;;;5.43;1.95;;;16.50;92.40;;;;;;5009906;28;20057;-68
2022/09/27 05:37:39;;;;;;;4.75;1.83;;;16.50;92.50;;;;;;5017777;28;20030;-68
2022/09/27 05:40:05;;;;;;;2.45;1.00;;;16.50;92.40;;;;;;5015244;28;20061;-69
2022/09/27 05:42:32;;;;;;;5.15;1.00;;;16.50;92.30;;;;;;5018589;28;21070;-69
2022/09/27 05:44:58;;;;;;;5.95;2.03;;;16.50;92.60;;;;;;5029500;28;20018;-68
2022/09/27 05:47:27;;;;;;;6.10;1.85;;;16.50;92.40;;;;;;5011135;28;20029;-69
2022/09/27 05:49:54;;;;;;;4.93;1.92;;;16.50;92.10;;;;;;5012412;28;20100;-69
2022/09/27 05:52:20;;;;;;;5.97;1.30;;;16.50;92.60;;;;;;5017796;28;20022;-69
2022/09/27 05:54:45;;;;;;;2.95;1.08;;;16.20;93.50;;;;;;5022891;28;20025;-69
2022/09/27 05:57:11;;;;;;;4.10;1.70;;;15.90;94.80;;;;;;5022290;28;20400;-68
2022/09/27 05:59:36;;;;;;;4.15;1.40;;;15.70;95.30;;;;;;5018228;28;20208;-68
2022/09/27 06:02:02;;;;;;;3.50;0.98;;;15.70;95.60;;;;;;5011092;28;20113;-68
2022/09/27 06:04:27;;;;;;;7.00;1.65;;;15.70;95.80;;;;;;5017119;28;20104;-69
2022/09/27 06:06:53;;;;;;;6.80;1.33;;;15.70;95.50;;;;;;5014439;28;20052;-69
2022/09/27 06:09:18;;;;;;;3.20;1.63;;;15.70;95.40;;;;;;5016343;28;20029;-69
2022/09/27 06:11:45;;;;;;;3.90;1.30;;;15.70;95.40;;;;;;5022279;28;20466;-68
2022/09/27 06:14:11;;;;;;;6.43;1.63;;;15.70;95.30;;;;;;5030471;28;20111;-69
2022/09/27 06:16:37;;;;;;;6.45;1.67;;;15.70;95.30;;;;;;5029283;28;20030;-69
2022/09/27 06:19:03;;;;;;;6.00;1.40;;;15.70;95.20;;;;;;5027743;28;20036;-69
2022/09/27 06:21:30;;;;;;;4.00;1.80;;;15.80;94.90;;;;;;5020494;28;20434;-69
2022/09/27 06:23:57;;;;;;;4.18;1.67;;;15.90;94.10;;;;;;5019085;28;20026;-68
2022/09/27 06:26:23;;;;;;;4.55;1.48;;;15.90;93.90;;;;;;5024171;28;20021;-68
2022/09/27 06:28:50;;;;;;;3.85;1.65;;;15.90;94.00;;;;;;5014204;28;20430;-68
2022/09/27 06:31:15;;;;;;;2.83;1.50;;;15.80;94.30;;;;;;5017061;28;20036;-69
2022/09/27 06:33:41;;;;;;;5.25;1.23;;;15.80;94.20;;;;;;5026273;28;20025;-69
2022/09/27 06:36:07;;;;;;;6.30;1.52;;;15.70;94.60;;;;;;5023125;28;20080;-68
2022/09/27 06:38:33;;;;;;;3.97;1.77;;;15.70;94.80;;;;;;5021771;28;20026;-68
2022/09/27 06:41:05;;;;;;;4.93;2.08;;;15.80;94.60;;;;;;5018533;28;20057;-69
2022/09/27 06:43:32;;;;;;;4.45;1.80;;;15.80;94.30;;;;;;5030384;28;20029;-69
2022/09/27 06:46:04;;;;;;;3.45;1.80;;;15.90;93.80;;;;;;5026722;28;20060;-68
2022/09/27 06:48:31;;;;;;;4.65;2.00;;;15.80;93.70;;;;;;5013364;28;20037;-68
2022/09/27 06:50:57;;;;;;;4.65;1.75;;;15.80;93.90;;;;;;5016719;28;20030;-69
2022/09/27 06:53:23;;;;;;;3.85;2.03;;;15.80;93.70;;;;;;5027272;28;20049;-69
2022/09/27 06:55:50;;;;;;;4.85;2.03;;;15.80;93.90;;;;;;5025999;28;20049;-69
2022/09/27 07:01:00;;;;;;;7.55;2.10;;;15.80;94.00;;;;;;5019191;28;20103;-69
2022/09/27 07:03:30;;;;;;;9.82;3.38;;;15.80;93.80;;;;;;5012820;28;20026;-68
2022/09/27 07:05:58;;;;;;;8.07;2.42;;;15.80;93.90;;;;;;5016282;28;20088;-69
2022/09/27 07:08:27;;;;;;;4.90;2.60;;;15.80;94.40;;;;;;5014103;28;20029;-69
2022/09/27 07:11:04;;;;;;;6.20;1.67;;;15.70;94.30;;;;;;5022610;28;20030;-69
2022/09/27 07:13:31;;;;;;;3.90;1.70;;;15.70;94.60;;;;;;5024767;28;20495;-68
2022/09/27 07:15:57;;;;;;;2.97;1.48;;;15.70;94.40;;;;;;5014054;28;20049;-69
2022/09/27 07:18:23;;;;;;;4.45;1.77;;;15.60;95.10;;;;;;5018402;28;20036;-68
2022/09/27 07:20:49;;;;;;;4.10;1.80;;;15.60;95.10;;;;;;5022106;28;20120;-68
2022/09/27 07:23:16;;;;;;;3.85;1.63;;;15.60;95.30;;;;;;5024740;28;20033;-68
2022/09/27 07:25:41;;;;;;;7.05;1.67;;;15.60;95.50;;;;;;5020198;28;20033;-69
2022/09/27 07:28:12;;;;;;;4.40;1.30;;;15.70;95.50;;;;;;5029683;28;20093;-68
2022/09/27 07:30:38;;;;;;;4.70;1.45;;;15.80;95.40;;;;;;5015163;28;20029;-69
2022/09/27 07:33:05;;;;;;;4.85;1.50;;;15.70;95.50;;;;;;5019043;28;20030;-68
2022/09/27 07:35:31;;;;;;;5.07;2.00;;;15.70;95.50;;;;;;5019121;28;20033;-68
2022/09/27 07:37:57;;;;;;;3.53;1.42;;;15.70;95.50;;;;;;5032936;28;20018;-68
2022/09/27 07:40:24;;;;;;;4.35;1.40;;;15.70;95.40;;;;;;5026813;28;20022;-68
2022/09/27 07:42:57;;;;;;;3.28;1.10;;;15.80;95.40;;;;;;5017475;28;20072;-68
2022/09/27 07:45:23;;;;;;;3.53;1.15;;;15.70;95.40;;;;;;5013622;28;20038;-68
2022/09/27 07:47:49;;;;;;;3.05;1.10;;;15.70;95.60;;;;;;5012401;28;20105;-68
2022/09/27 07:50:15;;;;;;;3.60;1.10;;;15.70;95.90;;;;;;5019004;28;20112;-68
2022/09/27 07:52:45;;;;;;;2.80;1.27;;;15.70;96.00;;;;;;5013950;28;20365;-68
2022/09/27 07:55:13;;;;;;;5.38;2.67;;;15.60;96.00;;;;;;5026423;28;20405;-68
2022/09/27 07:57:40;;;;;;;2.78;1.38;;;15.70;95.70;;;;;;5030556;28;20064;-68
2022/09/27 08:00:11;;;;;;;2.25;1.08;;;15.70;95.80;;;;;;5032861;28;20045;-68
2022/09/27 08:02:36;;;;;;;4.15;1.05;;;15.70;95.80;;;;;;5030184;28;20022;-68
2022/09/27 08:05:03;;;;;;;3.15;1.35;;;15.70;96.00;;;;;;5032819;28;20083;-68
2022/09/27 08:07:30;;;;;;;3.75;1.73;;;15.70;96.10;;;;;;5032826;28;20439;-68
2022/09/27 08:09:55;;;;;;;5.28;1.67;;;15.80;95.80;;;;;;5032522;28;20049;-68
2022/09/27 08:12:21;;;;;;;3.22;1.20;;;15.80;95.80;;;;;;5029493;28;20073;-68
2022/09/27 08:14:47;;;;;;;3.38;0.82;;;15.80;96.00;;;;;;5014507;28;20053;-69
2022/09/27 08:17:13;;;;;;;2.67;1.58;;;15.80;96.20;;;;;;5023371;28;20041;-68
2022/09/27 08:19:39;;;;;;;3.38;1.35;;;15.90;96.00;;;;;;5027004;28;20037;-69
2022/09/27 08:22:08;;;;;;;2.75;1.20;;;15.80;96.00;;;;;;5031482;28;20463;-69
2022/09/27 08:24:34;;;;;;;3.17;1.40;;;15.90;95.90;;;;;;5026718;28;20026;-68
2022/09/27 08:27:01;;;;;;;4.00;1.95;;;15.80;95.80;;;;;;5018512;28;20075;-69
2022/09/27 08:29:27;;;;;;;4.57;1.50;;;15.90;95.50;;;;;;5021680;28;20032;-69
2022/09/27 08:31:53;;;;;;;1.83;1.10;;;15.90;95.50;;;;;;5032570;28;20025;-68
2022/09/27 08:34:22;;;;;;;2.97;1.20;;;15.90;95.40;;;;;;5018303;28;20034;-68
2022/09/27 08:36:48;;;;;;;3.00;1.40;;;15.90;95.40;;;;;;5019991;28;20021;-68
2022/09/27 08:39:14;;;;;;;3.00;1.05;;;15.80;95.50;;;;;;5032208;28;20033;-69
2022/09/27 08:41:52;;;;;;;6.35;1.40;;;15.80;95.80;;;;;;5032696;28;20029;-69
2022/09/27 08:44:42;;;;;;;2.83;1.08;;;15.80;95.80;;;;;;5026774;28;20033;-69
2022/09/27 08:47:17;;;;;;;3.78;0.88;;;15.80;96.00;;;;;;5015961;28;20037;-68
2022/09/27 08:50:18;;;;;;;3.70;1.20;;;15.80;96.10;;;;;;5016173;28;20026;-69
2022/09/27 08:52:54;;;;;;;3.30;0.90;;;15.80;96.20;;;;;;5028131;28;20042;-68
2022/09/27 08:55:30;;;;;;;3.17;1.00;;;15.80;96.20;;;;;;5014904;28;20032;-69
2022/09/27 08:57:58;;;;;;;2.13;0.82;;;15.90;96.30;;;;;;5015453;28;20108;-69
2022/09/27 09:00:26;;;;;;;2.13;0.70;;;15.90;96.20;;;;;;5024416;28;20040;-68
2022/09/27 09:02:52;;;;;;;4.68;1.10;;;15.90;96.30;;;;;;5025723;28;20033;-69
2022/09/27 09:05:33;;;;;;;2.35;0.80;;;15.90;96.40;;;;;;5019663;28;20029;-69
2022/09/27 09:08:20;;;;;;;3.72;0.90;;;15.90;96.40;;;;;;5030128;28;20033;-69
2022/09/27 09:14:13;;;;;;;3.65;1.15;;;16.00;96.30;;;;;;5028536;28;20091;-68
2022/09/27 09:16:53;;;;;;;2.42;0.80;;;15.90;96.30;;;;;;5023161;28;20395;-69
2022/09/27 09:19:53;;;;;;;1.60;0.57;;;16.00;96.30;;;;;;5015449;28;20037;-69
2022/09/27 09:22:28;;;;;;;3.00;0.70;;;16.00;96.30;;;;;;5022275;28;20543;-69
2022/09/27 09:25:21;;;;;;;3.67;1.20;;;15.90;96.40;;;;;;5033077;28;20026;-69
2022/09/27 09:27:55;;;;;;;;;;;16.00;96.30;;;;;;5028573;28;20109;-69
2022/09/27 09:30:23;;;;;;;2.95;0.90;;;16.10;96.30;;;;;;5033378;28;19917;-68
2022/09/27 09:33:07;;;;;;;4.43;1.33;;;16.00;96.30;;;;;;5036950;28;20022;-68
2022/09/27 09:35:49;;;;;;;3.67;1.35;;;16.00;96.20;;;;;;5021509;28;20518;-69
2022/09/27 09:38:22;;;;;;;3.03;1.00;;;16.10;96.30;;;;;;5021282;28;20124;-69
2022/09/27 09:40:54;;;;;;;3.70;1.52;;;16.10;96.20;;;;;;5030462;28;20036;-69
2022/09/27 09:43:42;;;;;;;6.18;1.42;;;16.20;96.20;;;;;;5029513;28;20040;-68
2022/09/27 09:46:15;;;;;;;4.00;1.30;;;16.20;96.10;;;;;;5014737;28;20067;-68
2022/09/27 09:48:50;;;;;;;5.13;1.27;;;16.30;96.10;;;;;;5021075;28;20021;-69
2022/09/27 09:51:24;;;;;;;3.72;1.33;;;16.20;96.10;;;;;;5034652;28;20034;-68
2022/09/27 09:54:04;;;;;;;6.85;1.30;;;16.20;96.10;;;;;;5020770;28;20375;-68
2022/09/27 09:56:34;;;;;;;4.25;1.42;;;16.20;96.00;;;;;;5028894;28;20053;-68
2022/09/27 09:59:17;;;;;;;6.43;1.65;;;16.30;96.00;;;;;;5015154;28;20502;-68
2022/09/27 10:01:46;;;;;;;5.13;1.08;;;16.30;96.10;;;;;;5027423;28;20155;-68
2022/09/27 10:04:17;;;;;;;5.85;1.10;;;16.30;95.90;;;;;;5015056;28;20029;-68
2022/09/27 10:06:43;;;;;;;6.10;1.63;;;16.30;95.80;;;;;;5034401;28;20026;-69
2022/09/27 10:09:14;;;;;;;6.22;1.23;;;16.40;95.70;;;;;;5034739;28;20036;-68
2022/09/27 10:11:42;;;;;;;7.57;0.80;;;16.40;95.80;;;;;;5024002;28;20053;-68
2022/09/27 10:14:16;;;;;;;5.13;1.13;;;16.40;95.40;;;;;;5033831;28;20022;-68
2022/09/27 10:16:53;;;;;;;4.03;0.90;;;16.40;94.90;;;;;;5032247;28;20053;-68
2022/09/27 10:19:26;;;;;;;4.93;0.88;;;16.50;95.00;;;;;;5024881;28;20160;-68
2022/09/27 10:21:52;;;;;;;2.85;0.70;;;16.50;94.60;;;;;;5031119;28;20466;-68
2022/09/27 10:24:18;;;;;;;6.55;0.90;;;16.50;94.50;;;;;;5017129;28;20030;-69
2022/09/27 10:26:47;;;;;;;5.00;1.08;;;16.50;93.70;;;;;;5024263;28;20063;-68
2022/09/27 10:29:16;;;;;;;5.18;1.23;;;16.60;93.30;;;;;;5014636;28;20025;-69
2022/09/27 10:31:46;;;;;;;7.63;1.45;;;16.50;93.50;;;;;;5015169;28;20026;-68
2022/09/27 10:34:34;;;;;;;7.72;1.60;;;16.50;93.80;;;;;;5026670;28;20030;-69
2022/09/27 10:37:05;;;;;;;3.28;0.73;;;16.60;93.90;;;;;;5031139;28;20021;-68
2022/09/27 10:39:31;;;;;;;3.13;0.75;;;16.60;93.80;;;;;;5014477;28;20033;-68
2022/09/27 10:41:56;;;;;;;3.60;0.63;;;16.60;92.90;;;;;;5018186;28;20030;-68
2022/09/27 10:44:26;;;;;;;6.47;0.75;;;16.60;92.80;;;;;;5014086;28;20025;-69
2022/09/27 10:46:59;;;;;;;6.35;1.42;;;16.60;92.90;;;;;;5028109;28;20110;-68
2022/09/27 10:49:43;;;;;;;3.65;0.82;;;16.70;93.00;;;;;;5023197;28;20553;-68
2022/09/27 10:52:21;;;;;;;5.22;1.15;;;16.70;92.90;;;;;;5016045;28;20510;-68
2022/09/27 10:54:59;;;;;;;6.88;1.27;;;16.70;92.70;;;;;;5028876;28;20116;-68
2022/09/27 10:57:29;;;;;;;3.88;0.85;;;16.70;92.90;;;;;;5027359;28;20037;-68
2022/09/27 11:00:05;;;;;;;7.75;0.90;;;16.80;92.70;;;;;;5030659;28;20509;-68
2022/09/27 11:02:36;;;;;;;5.95;0.73;;;16.80;92.40;;;;;;5025201;28;20037;-69
2022/09/27 11:05:26;;;;;;;3.88;0.75;;;16.80;92.00;;;;;;5018845;28;20422;-68
2022/09/27 11:07:57;;;;;;;3.75;0.70;;;16.80;92.00;;;;;;5012870;28;20021;-69
2022/09/27 11:10:30;;;;;;;9.25;1.05;;;16.80;92.00;;;;;;5028904;28;20060;-68
2022/09/27 11:13:06;;;;;;;5.15;0.93;;;16.80;91.60;;;;;;5023222;28;20014;-69
2022/09/27 11:15:44;;;;;;;4.30;1.08;;;16.90;91.50;;;;;;5012728;28;20034;-68
2022/09/27 11:18:54;;;;;;;5.78;1.17;;;16.90;91.30;;;;;;5013323;28;20033;-69
2022/09/27 11:21:41;;;;;;;4.85;0.75;;;16.90;91.30;;;;;;5019682;28;20802;-68
2022/09/27 11:24:43;;;;;;;6.00;1.10;;;16.90;91.20;;;;;;5019156;28;20053;-68
2022/09/27 11:27:22;;;;;;;5.30;0.55;;;16.90;90.80;;;;;;5025435;28;20025;-68
2022/09/27 11:29:48;;;;;;;3.67;0.85;;;16.90;91.00;;;;;;5013137;28;20033;-68
2022/09/27 11:32:50;;;;;;;8.07;1.00;;;17.00;90.90;;;;;;5015253;28;20029;-69
2022/09/27 11:35:36;;;;;;;8.27;1.48;;;17.00;90.90;;;;;;5017082;28;20034;-68
2022/09/27 11:38:14;;;;;;;4.47;0.73;;;17.00;91.00;;;;;;5011118;28;20117;-68
2022/09/27 11:41:10;;;;;;;5.13;0.98;;;17.00;91.00;;;;;;5016397;28;20402;-68
2022/09/27 11:44:04;;;;;;;6.50;0.90;;;17.00;91.20;;;;;;5018975;28;20044;-68
2022/09/27 11:46:37;;;;;;;6.30;0.60;;;17.00;90.80;;;;;;5024212;28;20036;-68
2022/09/27 11:49:27;;;;;;;2.53;0.50;;;17.10;90.80;;;;;;5012695;28;20049;-68
2022/09/27 11:52:07;;;;;;;3.88;0.80;;;17.10;91.10;;;;;;5014281;28;20395;-70
2022/09/27 11:55:03;;;;;;;1.60;0.50;;;17.10;91.40;;;;;;5023293;28;20478;-68
2022/09/27 11:57:42;;;;;;;2.75;0.40;;;17.00;91.40;;;;;;5019353;28;20033;-68
2022/09/27 12:00:30;;;;;;;4.15;0.40;;;17.00;91.00;;;;;;5028796;28;20041;-67
2022/09/27 12:03:10;;;;;;;4.03;0.57;;;17.00;91.40;;;;;;5018054;28;20046;-68
2022/09/27 12:05:57;;;;;;;8.00;0.82;;;17.10;91.00;;;;;;5022873;28;20502;-69
2022/09/27 12:08:47;;;;;;;4.15;0.88;;;17.00;91.50;;;;;;5016269;28;20037;-68
2022/09/27 12:11:25;;;;;;;6.28;0.90;;;17.10;91.50;;;;;;5014584;28;20037;-67
2022/09/27 12:14:16;;;;;;;4.90;0.70;;;17.00;92.00;;;;;;5020306;28;20034;-69
2022/09/27 12:16:44;;;;;;;5.88;0.80;;;17.00;92.10;;;;;;5029303;28;20078;-69
2022/09/27 12:19:23;;;;;;;5.57;0.55;;;17.10;92.70;;;;;;5014481;28;20033;-68
2022/09/27 12:21:48;;;;;;;6.75;1.05;;;17.10;93.30;;;;;;5017495;28;20030;-68
2022/09/27 12:24:24;;;;;;;6.28;1.27;;;17.10;93.40;;;;;;5013039;28;20364;-68
2022/09/27 12:26:54;;;;;;;8.75;1.10;;;17.10;93.30;;;;;;5025266;28;20030;-68
2022/09/27 12:29:32;;;;;;;4.93;1.27;;;17.10;93.00;;;;;;5028989;28;20033;-68
2022/09/27 12:32:16;;;;;;;8.18;1.13;;;17.10;92.80;;;;;;5016585;28;20026;-68
2022/09/27 12:35:09;;;;;;;4.35;1.17;;;17.10;93.10;;;;;;5030483;28;20040;-68
2022/09/27 12:37:52;;;;;;;6.20;1.42;;;17.20;92.50;;;;;;5036555;28;20029;-68
2022/09/27 12:40:23;;;;;;;3.97;1.10;;;17.20;91.60;;;;;;5036283;28;20095;-68
2022/09/27 12:43:12;;;;;;;3.53;0.90;;;17.30;91.40;;;;;;5018007;28;20022;-68
2022/09/27 12:45:59;;;;;;;1.95;0.45;;;17.30;91.70;;;;;;5016115;28;20080;-68
2022/09/27 12:48:41;;;;;;;7.88;1.38;;;17.30;92.60;;;;;;5016317;28;20106;-68
2022/09/27 12:51:17;;;;;;;;;;;17.30;92.80;;;;;;5019209;28;20026;-68
2022/09/27 12:53:58;;;;;;;;;;;17.40;92.00;;;;;;5023301;28;20362;-69
2022/09/27 12:56:23;;;;;;;;;;;17.40;92.30;;;;;;5016756;28;20446;-68
2022/09/27 12:58:55;;;;;;;;;;;17.40;92.40;;;;;;5016317;28;19996;-68
2022/09/27 13:01:33;;;;;;;;;;;17.40;91.80;;;;;;5033982;28;19916;-68
2022/09/27 13:04:09;;;;;;;;;;;17.40;91.80;;;;;;5036404;28;19905;-68
2022/09/27 13:06:34;;;;;;;;;;;17.40;91.80;;;;;;5036424;28;19905;-69
2022/09/27 13:09:06;;;;;;;;;;;17.50;91.90;;;;;;5036313;28;20350;-68
2022/09/27 13:11:34;;;;;;;;;;;17.50;91.10;;;;;;5022257;28;19909;-68
2022/09/27 13:14:00;;;;;;;;;;;17.60;91.00;;;;;;5015952;28;19940;-68
2022/09/27 13:16:26;;;;;;;;;;;17.50;91.70;;;;;;5018268;28;19935;-68
2022/09/27 13:18:52;;;;;;;;;;;17.50;92.60;;;;;;5019571;28;20436;-68
2022/09/27 13:21:36;;;;;;;;;;;17.60;92.80;;;;;;5036133;28;19992;-68
2022/09/27 13:24:02;;;;;;;;;;;17.60;93.00;;;;;;5030791;28;19976;-68